Terminal Aerodrome Forecast
Issued by NWS Atlanta, GA

Home | Current Version | Previous Version | Text Only | Print | Product List | Glossary On
Versions: 1 2 3 4 5 6 7 8 9 10 11 12 13 14 15 16 17 18 19 20 21 22 23 24 25 26 27 28 29 30 31 32 33 34 35 36
000
FTUS42 KFFC 031731
TAFAHN
TAF
KAHN 031731Z 0318/0418 06005KT 3SM -RA BR OVC007
     FM032100 06004KT P6SM OVC006
     FM040800 00000KT 4SM BR OVC003
     FM041500 23006KT P6SM BKN007
     FM041700 22008KT P6SM BKN020=

USA.gov is the U.S. government's official web portal to all federal, state and local government web resources and services.